sensor_id;sensor_type;location;lat;lon;timestamp;P1;durP1;ratioP1;P2;durP2;ratioP2
2257;SDS011;1136;51.574;7.706;2022-10-16T00:00:37;6.33;;;3.50;;
2257;SDS011;1136;51.574;7.706;2022-10-16T00:03:05;3.07;;;2.73;;
2257;SDS011;1136;51.574;7.706;2022-10-16T00:05:32;6.83;;;2.97;;
2257;SDS011;1136;51.574;7.706;2022-10-16T00:07:59;3.63;;;3.33;;
2257;SDS011;1136;51.574;7.706;2022-10-16T00:10:25;3.23;;;2.77;;
2257;SDS011;1136;51.574;7.706;2022-10-16T00:12:52;3.70;;;3.13;;
2257;SDS011;1136;51.574;7.706;2022-10-16T00:15:19;12.43;;;3.30;;
2257;SDS011;1136;51.574;7.706;2022-10-16T00:17:45;6.03;;;3.00;;
2257;SDS011;1136;51.574;7.706;2022-10-16T00:20:12;3.97;;;3.03;;
2257;SDS011;1136;51.574;7.706;2022-10-16T00:22:38;7.80;;;3.33;;
2257;SDS011;1136;51.574;7.706;2022-10-16T00:25:06;3.27;;;3.07;;
2257;SDS011;1136;51.574;7.706;2022-10-16T00:27:33;3.00;;;2.80;;
2257;SDS011;1136;51.574;7.706;2022-10-16T00:30:00;3.37;;;2.53;;
2257;SDS011;1136;51.574;7.706;2022-10-16T00:32:26;4.50;;;3.00;;
2257;SDS011;1136;51.574;7.706;2022-10-16T00:34:53;3.47;;;2.80;;
2257;SDS011;1136;51.574;7.706;2022-10-16T00:37:23;7.80;;;3.10;;
2257;SDS011;1136;51.574;7.706;2022-10-16T00:39:49;6.13;;;5.57;;
2257;SDS011;1136;51.574;7.706;2022-10-16T00:42:17;5.10;;;3.40;;
2257;SDS011;1136;51.574;7.706;2022-10-16T00:47:21;9.10;;;2.60;;
2257;SDS011;1136;51.574;7.706;2022-10-16T00:50:18;7.30;;;3.13;;
2257;SDS011;1136;51.574;7.706;2022-10-16T00:52:46;4.73;;;3.00;;
2257;SDS011;1136;51.574;7.706;2022-10-16T00:55:14;3.30;;;3.00;;
2257;SDS011;1136;51.574;7.706;2022-10-16T00:57:40;2.30;;;2.10;;
2257;SDS011;1136;51.574;7.706;2022-10-16T01:00:08;2.60;;;2.37;;
2257;SDS011;1136;51.574;7.706;2022-10-16T01:02:36;2.70;;;2.50;;
2257;SDS011;1136;51.574;7.706;2022-10-16T01:05:03;3.53;;;2.40;;
2257;SDS011;1136;51.574;7.706;2022-10-16T01:12:57;9.63;;;3.10;;
2257;SDS011;1136;51.574;7.706;2022-10-16T01:21:12;2.47;;;2.37;;
2257;SDS011;1136;51.574;7.706;2022-10-16T01:23:47;2.50;;;2.30;;
2257;SDS011;1136;51.574;7.706;2022-10-16T01:29:03;2.33;;;2.13;;
2257;SDS011;1136;51.574;7.706;2022-10-16T01:31:32;6.60;;;2.37;;
2257;SDS011;1136;51.574;7.706;2022-10-16T01:37:35;3.87;;;2.30;;
2257;SDS011;1136;51.574;7.706;2022-10-16T01:40:07;5.23;;;2.70;;
2257;SDS011;1136;51.574;7.706;2022-10-16T01:42:37;3.80;;;2.10;;
2257;SDS011;1136;51.574;7.706;2022-10-16T01:45:09;5.30;;;2.33;;
2257;SDS011;1136;51.574;7.706;2022-10-16T01:47:39;3.40;;;2.23;;
2257;SDS011;1136;51.574;7.706;2022-10-16T01:50:07;1.77;;;1.67;;
2257;SDS011;1136;51.574;7.706;2022-10-16T01:52:35;2.90;;;2.10;;
2257;SDS011;1136;51.574;7.706;2022-10-16T01:55:03;2.17;;;2.07;;
2257;SDS011;1136;51.574;7.706;2022-10-16T01:57:32;2.17;;;2.07;;
2257;SDS011;1136;51.574;7.706;2022-10-16T02:00:05;9.80;;;2.27;;
2257;SDS011;1136;51.574;7.706;2022-10-16T02:02:34;3.30;;;1.90;;
2257;SDS011;1136;51.574;7.706;2022-10-16T02:05:16;2.40;;;2.20;;
2257;SDS011;1136;51.574;7.706;2022-10-16T02:07:44;2.80;;;2.00;;
2257;SDS011;1136;51.574;7.706;2022-10-16T02:10:11;2.20;;;2.10;;
2257;SDS011;1136;51.574;7.706;2022-10-16T02:12:38;2.30;;;1.90;;
2257;SDS011;1136;51.574;7.706;2022-10-16T02:15:08;2.77;;;2.33;;
2257;SDS011;1136;51.574;7.706;2022-10-16T02:17:35;2.90;;;1.93;;
2257;SDS011;1136;51.574;7.706;2022-10-16T02:20:02;1.90;;;1.80;;
2257;SDS011;1136;51.574;7.706;2022-10-16T02:22:32;2.37;;;1.83;;
2257;SDS011;1136;51.574;7.706;2022-10-16T02:25:09;7.57;;;2.53;;
2257;SDS011;1136;51.574;7.706;2022-10-16T02:27:45;2.80;;;1.80;;
2257;SDS011;1136;51.574;7.706;2022-10-16T02:32:48;2.63;;;1.97;;
2257;SDS011;1136;51.574;7.706;2022-10-16T02:35:15;4.90;;;2.00;;
2257;SDS011;1136;51.574;7.706;2022-10-16T02:37:43;5.63;;;2.50;;
2257;SDS011;1136;51.574;7.706;2022-10-16T02:40:10;5.70;;;1.93;;
2257;SDS011;1136;51.574;7.706;2022-10-16T02:42:41;7.33;;;2.00;;
2257;SDS011;1136;51.574;7.706;2022-10-16T02:45:08;2.10;;;2.00;;
2257;SDS011;1136;51.574;7.706;2022-10-16T02:47:36;2.30;;;2.10;;
2257;SDS011;1136;51.574;7.706;2022-10-16T02:50:03;2.50;;;2.20;;
2257;SDS011;1136;51.574;7.706;2022-10-16T02:52:30;3.33;;;2.17;;
2257;SDS011;1136;51.574;7.706;2022-10-16T02:54:56;3.40;;;2.17;;
2257;SDS011;1136;51.574;7.706;2022-10-16T02:57:23;2.53;;;1.80;;
2257;SDS011;1136;51.574;7.706;2022-10-16T02:59:50;1.60;;;1.50;;
2257;SDS011;1136;51.574;7.706;2022-10-16T03:02:16;2.00;;;1.90;;
2257;SDS011;1136;51.574;7.706;2022-10-16T03:04:43;2.80;;;2.23;;
2257;SDS011;1136;51.574;7.706;2022-10-16T03:07:10;2.50;;;1.60;;
2257;SDS011;1136;51.574;7.706;2022-10-16T03:09:36;2.57;;;1.90;;
2257;SDS011;1136;51.574;7.706;2022-10-16T03:12:03;5.80;;;2.27;;
2257;SDS011;1136;51.574;7.706;2022-10-16T03:14:30;2.27;;;2.10;;
2257;SDS011;1136;51.574;7.706;2022-10-16T03:16:56;1.73;;;1.53;;
2257;SDS011;1136;51.574;7.706;2022-10-16T03:19:23;3.03;;;1.60;;
2257;SDS011;1136;51.574;7.706;2022-10-16T03:21:49;1.80;;;1.70;;
2257;SDS011;1136;51.574;7.706;2022-10-16T03:24:16;1.70;;;1.60;;
2257;SDS011;1136;51.574;7.706;2022-10-16T03:26:43;1.97;;;1.80;;
2257;SDS011;1136;51.574;7.706;2022-10-16T03:29:09;1.97;;;1.87;;
2257;SDS011;1136;51.574;7.706;2022-10-16T03:31:36;2.30;;;2.10;;
2257;SDS011;1136;51.574;7.706;2022-10-16T03:34:02;1.80;;;1.70;;
2257;SDS011;1136;51.574;7.706;2022-10-16T03:36:29;1.70;;;1.60;;
2257;SDS011;1136;51.574;7.706;2022-10-16T03:38:55;1.90;;;1.70;;
2257;SDS011;1136;51.574;7.706;2022-10-16T03:41:22;2.93;;;1.70;;
2257;SDS011;1136;51.574;7.706;2022-10-16T03:43:48;1.60;;;1.50;;
2257;SDS011;1136;51.574;7.706;2022-10-16T03:46:15;2.30;;;2.10;;
2257;SDS011;1136;51.574;7.706;2022-10-16T03:48:42;1.73;;;1.63;;
2257;SDS011;1136;51.574;7.706;2022-10-16T03:51:08;1.80;;;1.70;;
2257;SDS011;1136;51.574;7.706;2022-10-16T03:53:35;1.70;;;1.60;;
2257;SDS011;1136;51.574;7.706;2022-10-16T03:56:01;2.10;;;2.00;;
2257;SDS011;1136;51.574;7.706;2022-10-16T03:58:28;2.80;;;1.50;;
2257;SDS011;1136;51.574;7.706;2022-10-16T04:00:54;1.50;;;1.40;;
2257;SDS011;1136;51.574;7.706;2022-10-16T04:03:21;2.33;;;2.03;;
2257;SDS011;1136;51.574;7.706;2022-10-16T04:05:49;1.63;;;1.40;;
2257;SDS011;1136;51.574;7.706;2022-10-16T04:08:16;2.80;;;1.20;;
2257;SDS011;1136;51.574;7.706;2022-10-16T04:10:43;2.13;;;1.80;;
2257;SDS011;1136;51.574;7.706;2022-10-16T04:13:11;4.80;;;1.77;;
2257;SDS011;1136;51.574;7.706;2022-10-16T04:15:37;1.67;;;1.20;;
2257;SDS011;1136;51.574;7.706;2022-10-16T04:18:07;5.53;;;1.30;;
2257;SDS011;1136;51.574;7.706;2022-10-16T04:20:34;1.83;;;1.60;;
2257;SDS011;1136;51.574;7.706;2022-10-16T04:23:00;1.63;;;1.53;;
2257;SDS011;1136;51.574;7.706;2022-10-16T04:25:27;1.40;;;1.30;;
2257;SDS011;1136;51.574;7.706;2022-10-16T04:27:53;1.40;;;1.30;;
2257;SDS011;1136;51.574;7.706;2022-10-16T04:30:21;4.33;;;1.40;;
2257;SDS011;1136;51.574;7.706;2022-10-16T04:32:48;2.30;;;1.30;;
2257;SDS011;1136;51.574;7.706;2022-10-16T04:35:20;1.60;;;1.50;;
2257;SDS011;1136;51.574;7.706;2022-10-16T04:37:47;2.10;;;1.40;;
2257;SDS011;1136;51.574;7.706;2022-10-16T04:40:14;2.60;;;1.40;;
2257;SDS011;1136;51.574;7.706;2022-10-16T04:42:41;2.30;;;1.60;;
2257;SDS011;1136;51.574;7.706;2022-10-16T04:45:08;3.37;;;1.33;;
2257;SDS011;1136;51.574;7.706;2022-10-16T04:47:40;3.10;;;1.40;;
2257;SDS011;1136;51.574;7.706;2022-10-16T04:50:06;1.70;;;1.60;;
2257;SDS011;1136;51.574;7.706;2022-10-16T04:52:33;1.50;;;1.40;;
2257;SDS011;1136;51.574;7.706;2022-10-16T04:55:00;1.97;;;1.43;;
2257;SDS011;1136;51.574;7.706;2022-10-16T04:57:28;1.83;;;1.30;;
2257;SDS011;1136;51.574;7.706;2022-10-16T04:59:56;5.57;;;1.80;;
2257;SDS011;1136;51.574;7.706;2022-10-16T05:02:22;2.93;;;1.40;;
2257;SDS011;1136;51.574;7.706;2022-10-16T05:04:49;1.50;;;1.40;;
2257;SDS011;1136;51.574;7.706;2022-10-16T05:07:18;3.00;;;1.63;;
2257;SDS011;1136;51.574;7.706;2022-10-16T05:09:44;1.30;;;1.20;;
2257;SDS011;1136;51.574;7.706;2022-10-16T05:12:11;1.57;;;1.33;;
2257;SDS011;1136;51.574;7.706;2022-10-16T05:14:37;5.77;;;1.50;;
2257;SDS011;1136;51.574;7.706;2022-10-16T05:17:04;2.17;;;1.30;;
2257;SDS011;1136;51.574;7.706;2022-10-16T05:19:30;9.73;;;2.10;;
2257;SDS011;1136;51.574;7.706;2022-10-16T05:21:57;1.80;;;1.53;;
2257;SDS011;1136;51.574;7.706;2022-10-16T05:24:24;1.73;;;1.50;;
2257;SDS011;1136;51.574;7.706;2022-10-16T05:26:50;2.70;;;2.10;;
2257;SDS011;1136;51.574;7.706;2022-10-16T05:29:17;1.67;;;1.57;;
2257;SDS011;1136;51.574;7.706;2022-10-16T05:31:44;3.13;;;1.40;;
2257;SDS011;1136;51.574;7.706;2022-10-16T05:34:10;1.80;;;1.50;;
2257;SDS011;1136;51.574;7.706;2022-10-16T05:36:37;1.50;;;1.40;;
2257;SDS011;1136;51.574;7.706;2022-10-16T05:39:04;2.90;;;1.70;;
2257;SDS011;1136;51.574;7.706;2022-10-16T05:41:30;3.83;;;1.60;;
2257;SDS011;1136;51.574;7.706;2022-10-16T05:43:57;1.80;;;1.70;;
2257;SDS011;1136;51.574;7.706;2022-10-16T05:46:26;5.77;;;2.07;;
2257;SDS011;1136;51.574;7.706;2022-10-16T05:48:53;1.60;;;1.50;;
2257;SDS011;1136;51.574;7.706;2022-10-16T05:51:19;1.33;;;1.23;;
2257;SDS011;1136;51.574;7.706;2022-10-16T05:53:46;3.93;;;1.73;;
2257;SDS011;1136;51.574;7.706;2022-10-16T05:56:12;2.00;;;1.80;;
2257;SDS011;1136;51.574;7.706;2022-10-16T05:58:39;3.10;;;1.90;;
2257;SDS011;1136;51.574;7.706;2022-10-16T06:01:26;7.50;;;2.33;;
2257;SDS011;1136;51.574;7.706;2022-10-16T06:03:52;3.90;;;2.00;;
2257;SDS011;1136;51.574;7.706;2022-10-16T06:06:20;4.27;;;2.30;;
2257;SDS011;1136;51.574;7.706;2022-10-16T06:08:49;2.17;;;2.07;;
2257;SDS011;1136;51.574;7.706;2022-10-16T06:11:16;2.77;;;2.23;;
2257;SDS011;1136;51.574;7.706;2022-10-16T06:13:51;3.30;;;2.00;;
2257;SDS011;1136;51.574;7.706;2022-10-16T06:16:18;8.20;;;2.50;;
2257;SDS011;1136;51.574;7.706;2022-10-16T06:18:45;2.27;;;2.00;;
2257;SDS011;1136;51.574;7.706;2022-10-16T06:21:20;7.47;;;2.70;;
2257;SDS011;1136;51.574;7.706;2022-10-16T06:23:48;2.33;;;2.00;;
2257;SDS011;1136;51.574;7.706;2022-10-16T06:26:15;8.10;;;2.57;;
2257;SDS011;1136;51.574;7.706;2022-10-16T06:28:43;6.07;;;2.13;;
2257;SDS011;1136;51.574;7.706;2022-10-16T06:31:10;8.20;;;2.27;;
2257;SDS011;1136;51.574;7.706;2022-10-16T06:33:40;4.30;;;2.30;;
2257;SDS011;1136;51.574;7.706;2022-10-16T06:36:08;2.17;;;2.00;;
2257;SDS011;1136;51.574;7.706;2022-10-16T06:38:35;6.93;;;2.37;;
2257;SDS011;1136;51.574;7.706;2022-10-16T06:41:03;5.50;;;2.23;;
2257;SDS011;1136;51.574;7.706;2022-10-16T06:43:30;2.40;;;2.17;;
2257;SDS011;1136;51.574;7.706;2022-10-16T06:46:02;2.10;;;2.00;;
2257;SDS011;1136;51.574;7.706;2022-10-16T06:48:32;4.87;;;2.53;;
2257;SDS011;1136;51.574;7.706;2022-10-16T06:51:13;2.30;;;1.80;;
2257;SDS011;1136;51.574;7.706;2022-10-16T06:53:43;4.37;;;2.00;;
2257;SDS011;1136;51.574;7.706;2022-10-16T06:56:28;3.57;;;1.63;;
2257;SDS011;1136;51.574;7.706;2022-10-16T06:58:57;2.43;;;2.23;;
2257;SDS011;1136;51.574;7.706;2022-10-16T07:01:24;4.83;;;2.40;;
2257;SDS011;1136;51.574;7.706;2022-10-16T07:03:52;9.83;;;2.07;;
2257;SDS011;1136;51.574;7.706;2022-10-16T07:06:22;2.93;;;1.80;;
2257;SDS011;1136;51.574;7.706;2022-10-16T07:08:49;4.23;;;1.63;;
2257;SDS011;1136;51.574;7.706;2022-10-16T07:11:16;2.67;;;1.90;;
2257;SDS011;1136;51.574;7.706;2022-10-16T07:13:47;3.93;;;1.73;;
2257;SDS011;1136;51.574;7.706;2022-10-16T07:16:23;1.73;;;1.53;;
2257;SDS011;1136;51.574;7.706;2022-10-16T07:18:51;7.30;;;2.20;;
2257;SDS011;1136;51.574;7.706;2022-10-16T07:21:25;3.10;;;1.60;;
2257;SDS011;1136;51.574;7.706;2022-10-16T07:23:59;10.10;;;2.00;;
2257;SDS011;1136;51.574;7.706;2022-10-16T07:26:27;2.23;;;2.03;;
2257;SDS011;1136;51.574;7.706;2022-10-16T07:28:56;3.13;;;1.77;;
2257;SDS011;1136;51.574;7.706;2022-10-16T07:31:23;1.87;;;1.43;;
2257;SDS011;1136;51.574;7.706;2022-10-16T07:33:50;2.13;;;1.93;;
2257;SDS011;1136;51.574;7.706;2022-10-16T07:36:18;1.70;;;1.60;;
2257;SDS011;1136;51.574;7.706;2022-10-16T07:38:47;1.50;;;1.40;;
2257;SDS011;1136;51.574;7.706;2022-10-16T07:41:15;1.67;;;1.40;;
2257;SDS011;1136;51.574;7.706;2022-10-16T07:43:46;2.13;;;1.40;;
2257;SDS011;1136;51.574;7.706;2022-10-16T07:46:14;3.70;;;1.77;;
2257;SDS011;1136;51.574;7.706;2022-10-16T07:48:42;3.37;;;1.77;;
2257;SDS011;1136;51.574;7.706;2022-10-16T07:51:15;1.77;;;1.63;;
2257;SDS011;1136;51.574;7.706;2022-10-16T07:53:44;6.60;;;1.90;;
2257;SDS011;1136;51.574;7.706;2022-10-16T07:56:11;1.97;;;1.87;;
2257;SDS011;1136;51.574;7.706;2022-10-16T07:58:38;1.97;;;1.63;;
2257;SDS011;1136;51.574;7.706;2022-10-16T08:01:08;2.07;;;1.97;;
2257;SDS011;1136;51.574;7.706;2022-10-16T08:03:36;1.70;;;1.40;;
2257;SDS011;1136;51.574;7.706;2022-10-16T08:06:03;3.10;;;1.60;;
2257;SDS011;1136;51.574;7.706;2022-10-16T08:08:30;1.50;;;1.40;;
2257;SDS011;1136;51.574;7.706;2022-10-16T08:10:57;4.00;;;1.83;;
2257;SDS011;1136;51.574;7.706;2022-10-16T08:13:23;2.13;;;1.93;;
2257;SDS011;1136;51.574;7.706;2022-10-16T08:15:51;3.03;;;2.20;;
2257;SDS011;1136;51.574;7.706;2022-10-16T08:18:19;2.23;;;1.83;;
2257;SDS011;1136;51.574;7.706;2022-10-16T08:20:46;3.90;;;2.63;;
2257;SDS011;1136;51.574;7.706;2022-10-16T08:23:12;2.20;;;1.53;;
2257;SDS011;1136;51.574;7.706;2022-10-16T08:25:40;2.10;;;1.47;;
2257;SDS011;1136;51.574;7.706;2022-10-16T08:28:08;1.93;;;1.70;;
2257;SDS011;1136;51.574;7.706;2022-10-16T08:30:36;3.40;;;1.90;;
2257;SDS011;1136;51.574;7.706;2022-10-16T08:33:03;1.83;;;1.60;;
2257;SDS011;1136;51.574;7.706;2022-10-16T08:35:29;2.13;;;1.87;;
2257;SDS011;1136;51.574;7.706;2022-10-16T08:37:58;2.53;;;2.30;;
2257;SDS011;1136;51.574;7.706;2022-10-16T08:40:25;1.90;;;1.60;;
2257;SDS011;1136;51.574;7.706;2022-10-16T08:51:22;1.60;;;1.50;;
2257;SDS011;1136;51.574;7.706;2022-10-16T08:53:55;1.30;;;1.20;;
2257;SDS011;1136;51.574;7.706;2022-10-16T08:56:25;1.60;;;1.50;;
2257;SDS011;1136;51.574;7.706;2022-10-16T08:58:52;3.10;;;1.63;;
2257;SDS011;1136;51.574;7.706;2022-10-16T09:01:32;6.20;;;1.83;;
2257;SDS011;1136;51.574;7.706;2022-10-16T09:06:54;1.40;;;1.30;;
2257;SDS011;1136;51.574;7.706;2022-10-16T09:12:05;3.27;;;2.60;;
2257;SDS011;1136;51.574;7.706;2022-10-16T09:14:42;1.63;;;1.47;;
2257;SDS011;1136;51.574;7.706;2022-10-16T09:22:46;1.73;;;1.30;;
2257;SDS011;1136;51.574;7.706;2022-10-16T09:25:16;3.93;;;1.33;;
2257;SDS011;1136;51.574;7.706;2022-10-16T09:27:45;1.40;;;1.30;;
2257;SDS011;1136;51.574;7.706;2022-10-16T09:30:14;1.27;;;1.17;;
2257;SDS011;1136;51.574;7.706;2022-10-16T09:32:43;3.63;;;1.20;;
2257;SDS011;1136;51.574;7.706;2022-10-16T09:35:11;1.83;;;1.40;;
2257;SDS011;1136;51.574;7.706;2022-10-16T09:37:42;1.03;;;0.93;;
2257;SDS011;1136;51.574;7.706;2022-10-16T09:40:13;1.97;;;1.30;;
2257;SDS011;1136;51.574;7.706;2022-10-16T09:42:50;2.20;;;1.40;;
2257;SDS011;1136;51.574;7.706;2022-10-16T09:45:21;4.93;;;1.30;;
2257;SDS011;1136;51.574;7.706;2022-10-16T09:47:49;1.43;;;1.33;;
2257;SDS011;1136;51.574;7.706;2022-10-16T09:50:23;2.30;;;1.20;;
2257;SDS011;1136;51.574;7.706;2022-10-16T09:53:11;1.30;;;1.20;;
2257;SDS011;1136;51.574;7.706;2022-10-16T09:55:52;3.63;;;1.47;;
2257;SDS011;1136;51.574;7.706;2022-10-16T09:58:21;1.73;;;1.00;;
2257;SDS011;1136;51.574;7.706;2022-10-16T10:00:52;1.00;;;0.90;;
2257;SDS011;1136;51.574;7.706;2022-10-16T10:03:36;2.10;;;1.53;;
2257;SDS011;1136;51.574;7.706;2022-10-16T10:06:26;1.53;;;1.20;;
2257;SDS011;1136;51.574;7.706;2022-10-16T10:09:38;2.20;;;1.13;;
2257;SDS011;1136;51.574;7.706;2022-10-16T10:11:51;4.47;;;1.43;;
2257;SDS011;1136;51.574;7.706;2022-10-16T10:14:37;1.50;;;1.10;;
2257;SDS011;1136;51.574;7.706;2022-10-16T10:46:56;4.10;;;3.37;;
2257;SDS011;1136;51.574;7.706;2022-10-16T11:01:00;2.50;;;1.07;;
2257;SDS011;1136;51.574;7.706;2022-10-16T11:06:26;1.20;;;1.10;;
2257;SDS011;1136;51.574;7.706;2022-10-16T11:09:13;1.33;;;1.23;;
2257;SDS011;1136;51.574;7.706;2022-10-16T11:12:06;2.67;;;1.37;;
2257;SDS011;1136;51.574;7.706;2022-10-16T11:14:40;2.80;;;1.10;;
2257;SDS011;1136;51.574;7.706;2022-10-16T11:17:11;3.43;;;1.40;;
2257;SDS011;1136;51.574;7.706;2022-10-16T11:19:48;1.10;;;1.10;;
2257;SDS011;1136;51.574;7.706;2022-10-16T11:24:51;1.47;;;1.20;;
2257;SDS011;1136;51.574;7.706;2022-10-16T11:27:33;1.30;;;1.20;;
2257;SDS011;1136;51.574;7.706;2022-10-16T11:30:02;1.13;;;1.03;;
2257;SDS011;1136;51.574;7.706;2022-10-16T11:32:33;1.67;;;1.47;;
2257;SDS011;1136;51.574;7.706;2022-10-16T11:35:11;2.53;;;1.13;;
2257;SDS011;1136;51.574;7.706;2022-10-16T11:37:43;2.17;;;1.20;;
2257;SDS011;1136;51.574;7.706;2022-10-16T11:40:16;1.17;;;1.03;;
2257;SDS011;1136;51.574;7.706;2022-10-16T11:42:53;1.43;;;1.10;;
2257;SDS011;1136;51.574;7.706;2022-10-16T11:45:30;2.10;;;1.20;;
2257;SDS011;1136;51.574;7.706;2022-10-16T11:48:48;2.17;;;1.20;;
2257;SDS011;1136;51.574;7.706;2022-10-16T11:50:54;1.50;;;1.17;;
2257;SDS011;1136;51.574;7.706;2022-10-16T11:56:07;2.37;;;1.30;;
2257;SDS011;1136;51.574;7.706;2022-10-16T11:58:41;2.30;;;1.20;;
2257;SDS011;1136;51.574;7.706;2022-10-16T12:06:50;1.47;;;1.03;;
2257;SDS011;1136;51.574;7.706;2022-10-16T12:09:27;1.77;;;0.97;;
2257;SDS011;1136;51.574;7.706;2022-10-16T12:11:55;1.57;;;1.10;;
2257;SDS011;1136;51.574;7.706;2022-10-16T12:14:32;2.13;;;1.07;;
2257;SDS011;1136;51.574;7.706;2022-10-16T12:17:26;1.70;;;1.10;;
2257;SDS011;1136;51.574;7.706;2022-10-16T12:20:18;1.53;;;0.90;;
2257;SDS011;1136;51.574;7.706;2022-10-16T12:22:50;4.33;;;1.30;;
2257;SDS011;1136;51.574;7.706;2022-10-16T12:27:59;1.53;;;0.93;;
2257;SDS011;1136;51.574;7.706;2022-10-16T12:30:53;5.30;;;1.70;;
2257;SDS011;1136;51.574;7.706;2022-10-16T12:33:23;1.23;;;1.13;;
2257;SDS011;1136;51.574;7.706;2022-10-16T12:35:51;1.40;;;1.00;;
2257;SDS011;1136;51.574;7.706;2022-10-16T12:38:28;1.53;;;1.10;;
2257;SDS011;1136;51.574;7.706;2022-10-16T12:41:29;1.20;;;0.90;;
2257;SDS011;1136;51.574;7.706;2022-10-16T12:43:57;2.50;;;1.20;;
2257;SDS011;1136;51.574;7.706;2022-10-16T12:51:35;1.40;;;0.90;;
2257;SDS011;1136;51.574;7.706;2022-10-16T12:56:37;1.97;;;0.80;;
2257;SDS011;1136;51.574;7.706;2022-10-16T13:02:16;2.10;;;1.97;;
2257;SDS011;1136;51.574;7.706;2022-10-16T13:05:20;2.00;;;1.90;;
2257;SDS011;1136;51.574;7.706;2022-10-16T13:15:55;2.70;;;1.10;;
2257;SDS011;1136;51.574;7.706;2022-10-16T13:18:50;0.90;;;0.83;;
2257;SDS011;1136;51.574;7.706;2022-10-16T13:35:48;1.30;;;0.90;;
2257;SDS011;1136;51.574;7.706;2022-10-16T13:38:18;4.40;;;1.10;;
2257;SDS011;1136;51.574;7.706;2022-10-16T13:46:16;1.53;;;0.70;;
2257;SDS011;1136;51.574;7.706;2022-10-16T13:48:55;1.97;;;0.80;;
2257;SDS011;1136;51.574;7.706;2022-10-16T13:51:27;1.00;;;0.77;;
2257;SDS011;1136;51.574;7.706;2022-10-16T13:53:55;2.03;;;0.90;;
2257;SDS011;1136;51.574;7.706;2022-10-16T13:56:25;1.67;;;1.07;;
2257;SDS011;1136;51.574;7.706;2022-10-16T13:59:06;3.00;;;0.90;;
2257;SDS011;1136;51.574;7.706;2022-10-16T14:01:47;1.70;;;1.00;;
2257;SDS011;1136;51.574;7.706;2022-10-16T14:04:14;1.20;;;1.10;;
2257;SDS011;1136;51.574;7.706;2022-10-16T14:06:42;1.63;;;0.70;;
2257;SDS011;1136;51.574;7.706;2022-10-16T14:09:26;1.33;;;0.80;;
2257;SDS011;1136;51.574;7.706;2022-10-16T14:11:58;2.50;;;0.80;;
2257;SDS011;1136;51.574;7.706;2022-10-16T14:14:40;1.10;;;1.00;;
2257;SDS011;1136;51.574;7.706;2022-10-16T14:17:15;1.20;;;1.00;;
2257;SDS011;1136;51.574;7.706;2022-10-16T14:19:45;2.37;;;1.00;;
2257;SDS011;1136;51.574;7.706;2022-10-16T14:22:28;1.23;;;0.80;;
2257;SDS011;1136;51.574;7.706;2022-10-16T14:24:57;4.03;;;1.20;;
2257;SDS011;1136;51.574;7.706;2022-10-16T14:27:29;1.50;;;0.90;;
2257;SDS011;1136;51.574;7.706;2022-10-16T14:33:00;1.93;;;1.07;;
2257;SDS011;1136;51.574;7.706;2022-10-16T14:35:35;2.20;;;0.90;;
2257;SDS011;1136;51.574;7.706;2022-10-16T14:38:03;1.70;;;1.20;;
2257;SDS011;1136;51.574;7.706;2022-10-16T14:40:33;1.00;;;0.87;;
2257;SDS011;1136;51.574;7.706;2022-10-16T14:43:03;3.03;;;1.00;;
2257;SDS011;1136;51.574;7.706;2022-10-16T14:45:31;4.03;;;0.93;;
2257;SDS011;1136;51.574;7.706;2022-10-16T14:48:01;2.27;;;1.10;;
2257;SDS011;1136;51.574;7.706;2022-10-16T14:50:30;1.30;;;0.97;;
2257;SDS011;1136;51.574;7.706;2022-10-16T14:52:57;2.63;;;1.00;;
2257;SDS011;1136;51.574;7.706;2022-10-16T14:55:24;2.03;;;1.10;;
2257;SDS011;1136;51.574;7.706;2022-10-16T14:57:51;1.30;;;0.93;;
2257;SDS011;1136;51.574;7.706;2022-10-16T15:00:24;1.10;;;0.90;;
2257;SDS011;1136;51.574;7.706;2022-10-16T15:02:51;1.93;;;1.73;;
2257;SDS011;1136;51.574;7.706;2022-10-16T15:05:25;1.80;;;1.20;;
2257;SDS011;1136;51.574;7.706;2022-10-16T15:07:54;1.40;;;1.17;;
2257;SDS011;1136;51.574;7.706;2022-10-16T15:10:22;4.70;;;3.10;;
2257;SDS011;1136;51.574;7.706;2022-10-16T15:12:50;2.40;;;1.87;;
2257;SDS011;1136;51.574;7.706;2022-10-16T15:17:50;3.37;;;1.07;;
2257;SDS011;1136;51.574;7.706;2022-10-16T15:20:25;2.00;;;1.00;;
2257;SDS011;1136;51.574;7.706;2022-10-16T15:22:53;1.67;;;1.00;;
2257;SDS011;1136;51.574;7.706;2022-10-16T15:27:59;1.83;;;1.20;;
2257;SDS011;1136;51.574;7.706;2022-10-16T15:30:27;1.93;;;1.43;;
2257;SDS011;1136;51.574;7.706;2022-10-16T15:32:54;2.93;;;2.20;;
2257;SDS011;1136;51.574;7.706;2022-10-16T15:35:20;3.03;;;1.80;;
2257;SDS011;1136;51.574;7.706;2022-10-16T15:37:47;1.67;;;1.40;;
2257;SDS011;1136;51.574;7.706;2022-10-16T15:40:15;2.07;;;1.70;;
2257;SDS011;1136;51.574;7.706;2022-10-16T15:42:43;2.83;;;1.30;;
2257;SDS011;1136;51.574;7.706;2022-10-16T15:45:11;1.50;;;1.37;;
2257;SDS011;1136;51.574;7.706;2022-10-16T15:47:38;3.97;;;1.20;;
2257;SDS011;1136;51.574;7.706;2022-10-16T15:50:12;2.90;;;1.53;;
2257;SDS011;1136;51.574;7.706;2022-10-16T15:52:39;3.47;;;1.43;;
2257;SDS011;1136;51.574;7.706;2022-10-16T15:55:10;3.97;;;1.20;;
2257;SDS011;1136;51.574;7.706;2022-10-16T15:57:38;3.20;;;1.33;;
2257;SDS011;1136;51.574;7.706;2022-10-16T16:00:10;3.83;;;1.57;;
2257;SDS011;1136;51.574;7.706;2022-10-16T16:02:39;2.13;;;1.47;;
2257;SDS011;1136;51.574;7.706;2022-10-16T16:05:09;2.17;;;1.33;;
2257;SDS011;1136;51.574;7.706;2022-10-16T16:07:37;2.73;;;1.43;;
2257;SDS011;1136;51.574;7.706;2022-10-16T16:10:06;3.17;;;2.87;;
2257;SDS011;1136;51.574;7.706;2022-10-16T16:12:34;3.87;;;2.10;;
2257;SDS011;1136;51.574;7.706;2022-10-16T16:15:01;3.07;;;2.30;;
2257;SDS011;1136;51.574;7.706;2022-10-16T16:17:31;2.00;;;1.80;;
2257;SDS011;1136;51.574;7.706;2022-10-16T16:19:59;6.80;;;4.37;;
2257;SDS011;1136;51.574;7.706;2022-10-16T16:22:26;14.57;;;10.80;;
2257;SDS011;1136;51.574;7.706;2022-10-16T16:24:53;14.30;;;12.90;;
2257;SDS011;1136;51.574;7.706;2022-10-16T16:27:20;16.90;;;15.20;;
2257;SDS011;1136;51.574;7.706;2022-10-16T16:29:47;13.47;;;12.13;;
2257;SDS011;1136;51.574;7.706;2022-10-16T16:32:13;15.03;;;10.83;;
2257;SDS011;1136;51.574;7.706;2022-10-16T16:34:40;14.10;;;10.90;;
2257;SDS011;1136;51.574;7.706;2022-10-16T16:37:07;11.40;;;10.30;;
2257;SDS011;1136;51.574;7.706;2022-10-16T16:39:34;11.90;;;9.93;;
2257;SDS011;1136;51.574;7.706;2022-10-16T16:42:00;11.97;;;9.83;;
2257;SDS011;1136;51.574;7.706;2022-10-16T16:44:29;8.90;;;6.90;;
2257;SDS011;1136;51.574;7.706;2022-10-16T16:46:56;4.87;;;4.37;;
2257;SDS011;1136;51.574;7.706;2022-10-16T16:49:22;8.13;;;3.90;;
2257;SDS011;1136;51.574;7.706;2022-10-16T16:51:49;4.63;;;3.07;;
2257;SDS011;1136;51.574;7.706;2022-10-16T16:54:16;4.13;;;3.60;;
2257;SDS011;1136;51.574;7.706;2022-10-16T16:56:42;4.70;;;3.80;;
2257;SDS011;1136;51.574;7.706;2022-10-16T16:59:14;5.57;;;3.87;;
2257;SDS011;1136;51.574;7.706;2022-10-16T17:01:46;3.63;;;3.33;;
2257;SDS011;1136;51.574;7.706;2022-10-16T17:04:15;7.53;;;6.07;;
2257;SDS011;1136;51.574;7.706;2022-10-16T17:06:42;7.30;;;5.40;;
2257;SDS011;1136;51.574;7.706;2022-10-16T17:09:08;4.60;;;4.23;;
2257;SDS011;1136;51.574;7.706;2022-10-16T17:11:38;4.57;;;4.13;;
2257;SDS011;1136;51.574;7.706;2022-10-16T17:14:07;4.10;;;3.80;;
2257;SDS011;1136;51.574;7.706;2022-10-16T17:16:34;4.93;;;4.27;;
2257;SDS011;1136;51.574;7.706;2022-10-16T17:19:03;5.70;;;4.67;;
2257;SDS011;1136;51.574;7.706;2022-10-16T17:21:33;5.10;;;4.70;;
2257;SDS011;1136;51.574;7.706;2022-10-16T17:24:00;5.70;;;5.10;;
2257;SDS011;1136;51.574;7.706;2022-10-16T17:26:27;7.50;;;4.60;;
2257;SDS011;1136;51.574;7.706;2022-10-16T17:28:55;4.80;;;4.00;;
2257;SDS011;1136;51.574;7.706;2022-10-16T17:31:24;11.27;;;4.07;;
2257;SDS011;1136;51.574;7.706;2022-10-16T17:33:53;6.20;;;3.90;;
2257;SDS011;1136;51.574;7.706;2022-10-16T17:36:20;5.17;;;4.40;;
2257;SDS011;1136;51.574;7.706;2022-10-16T17:38:47;4.03;;;3.67;;
2257;SDS011;1136;51.574;7.706;2022-10-16T17:41:15;2.70;;;2.50;;
2257;SDS011;1136;51.574;7.706;2022-10-16T17:43:43;2.83;;;2.30;;
2257;SDS011;1136;51.574;7.706;2022-10-16T17:46:11;3.83;;;3.43;;
2257;SDS011;1136;51.574;7.706;2022-10-16T17:48:42;2.60;;;2.40;;
2257;SDS011;1136;51.574;7.706;2022-10-16T17:51:11;4.43;;;3.30;;
2257;SDS011;1136;51.574;7.706;2022-10-16T17:53:42;4.17;;;3.60;;
2257;SDS011;1136;51.574;7.706;2022-10-16T17:56:11;4.37;;;4.00;;
2257;SDS011;1136;51.574;7.706;2022-10-16T17:58:39;6.27;;;4.80;;